createdAt,value
2018-07-31T00:01:37.852Z,3.07
2018-07-31T00:04:06.653Z,2.27
2018-07-31T00:06:38.759Z,2.87
2018-07-31T00:09:28.422Z,2.57
2018-07-31T00:11:57.046Z,3.10
2018-07-31T00:14:33.327Z,2.60
2018-07-31T00:17:01.914Z,3.00
2018-07-31T00:19:30.368Z,3.40
2018-07-31T00:21:58.872Z,3.80
2018-07-31T00:24:27.483Z,2.87
2018-07-31T00:26:56.350Z,4.00
2018-07-31T00:29:24.844Z,3.37
2018-07-31T00:31:53.488Z,3.20
2018-07-31T00:34:22.051Z,2.80
2018-07-31T00:36:50.495Z,3.93
2018-07-31T00:39:19.013Z,3.50
2018-07-31T00:41:47.601Z,4.00
2018-07-31T00:44:16.127Z,2.93
2018-07-31T00:46:44.714Z,4.30
2018-07-31T00:49:13.180Z,2.90
2018-07-31T00:51:41.705Z,3.97
2018-07-31T00:54:10.175Z,3.97
2018-07-31T00:56:38.787Z,2.43
2018-07-31T00:59:07.329Z,3.43
2018-07-31T01:01:37.957Z,3.47
2018-07-31T01:04:06.445Z,2.70
2018-07-31T01:06:40.221Z,3.33
2018-07-31T01:09:10.274Z,2.63
2018-07-31T01:11:39.057Z,3.50
2018-07-31T01:14:20.628Z,2.90
2018-07-31T01:16:49.129Z,3.27
2018-07-31T01:19:17.658Z,2.27
2018-07-31T01:21:46.122Z,3.90
2018-07-31T01:24:14.791Z,4.23
2018-07-31T01:26:43.272Z,3.50
2018-07-31T01:29:11.845Z,3.70
2018-07-31T01:31:40.441Z,2.83
2018-07-31T01:34:17.029Z,3.77
2018-07-31T01:36:45.585Z,3.83
2018-07-31T01:39:14.185Z,3.13
2018-07-31T01:41:43.067Z,3.60
2018-07-31T01:47:34.399Z,2.90
2018-07-31T01:50:02.967Z,3.17
2018-07-31T01:52:31.492Z,3.83
2018-07-31T01:55:00.110Z,3.13
2018-07-31T01:57:28.623Z,4.13
2018-07-31T01:59:57.049Z,2.93
2018-07-31T02:02:25.590Z,3.80
2018-07-31T02:04:54.229Z,2.80
2018-07-31T02:07:22.694Z,3.80
2018-07-31T02:09:51.252Z,2.90
2018-07-31T02:12:19.726Z,3.43
2018-07-31T02:14:48.299Z,3.23
2018-07-31T02:17:16.825Z,4.07
2018-07-31T02:19:45.462Z,4.20
2018-07-31T02:22:13.962Z,4.47
2018-07-31T02:24:42.581Z,3.73
2018-07-31T02:27:11.131Z,3.70
2018-07-31T02:29:45.118Z,3.50
2018-07-31T02:32:13.621Z,4.80
2018-07-31T02:34:42.209Z,4.93
2018-07-31T02:37:10.768Z,3.10
2018-07-31T02:39:40.292Z,4.57
2018-07-31T02:42:08.862Z,4.33
2018-07-31T02:44:37.373Z,4.37
2018-07-31T02:47:06.195Z,5.00
2018-07-31T02:49:34.745Z,4.23
2018-07-31T02:52:03.403Z,3.90
2018-07-31T02:54:31.913Z,4.37
2018-07-31T02:57:00.363Z,4.67
2018-07-31T02:59:28.892Z,6.13
2018-07-31T03:01:57.549Z,6.53
2018-07-31T03:04:26.042Z,4.30
2018-07-31T03:06:54.593Z,5.40
2018-07-31T03:09:23.096Z,6.70
2018-07-31T03:11:51.578Z,6.30
2018-07-31T03:14:20.049Z,5.80
2018-07-31T03:16:48.483Z,4.67
2018-07-31T03:19:17.182Z,5.27
2018-07-31T03:21:45.798Z,4.77
2018-07-31T03:24:14.300Z,4.40
2018-07-31T03:26:42.866Z,5.40
2018-07-31T03:29:11.383Z,5.00
2018-07-31T03:31:39.842Z,4.97
2018-07-31T03:34:08.365Z,5.40
2018-07-31T03:36:36.895Z,4.67
2018-07-31T03:39:07.464Z,4.20
2018-07-31T03:41:36.016Z,4.00
2018-07-31T03:44:04.516Z,3.70
2018-07-31T03:46:49.860Z,6.13
2018-07-31T03:49:18.458Z,6.60
2018-07-31T03:51:46.951Z,6.17
2018-07-31T03:54:15.537Z,6.47
2018-07-31T03:56:44.132Z,5.00
2018-07-31T03:59:12.686Z,6.87
2018-07-31T04:01:41.385Z,5.23
2018-07-31T04:04:18.368Z,6.17
2018-07-31T04:06:46.962Z,6.60
2018-07-31T04:09:15.657Z,5.47
2018-07-31T04:11:44.125Z,8.73
2018-07-31T04:14:12.568Z,8.30
2018-07-31T04:16:41.139Z,9.70
2018-07-31T04:19:09.573Z,10.23
2018-07-31T04:21:38.085Z,8.97
2018-07-31T04:24:06.574Z,8.77
2018-07-31T04:26:35.127Z,7.93
2018-07-31T04:29:03.699Z,9.20
2018-07-31T04:31:32.172Z,10.10
2018-07-31T04:34:00.635Z,10.90
2018-07-31T04:36:29.153Z,11.83
2018-07-31T04:38:57.592Z,8.27
2018-07-31T04:41:26.023Z,9.37
2018-07-31T04:43:54.586Z,10.30
2018-07-31T04:46:23.197Z,10.53
2018-07-31T04:48:51.637Z,8.73
2018-07-31T04:51:20.147Z,7.70
2018-07-31T04:53:48.612Z,8.67
2018-07-31T04:56:17.204Z,8.53
2018-07-31T04:58:45.725Z,10.50
2018-07-31T05:01:14.264Z,10.87
2018-07-31T05:03:42.853Z,9.23
2018-07-31T05:06:11.543Z,13.10
2018-07-31T05:08:40.141Z,9.80
2018-07-31T05:11:08.734Z,12.07
2018-07-31T05:13:37.286Z,10.00
2018-07-31T05:16:06.073Z,11.70
2018-07-31T05:18:43.675Z,9.47
2018-07-31T05:21:12.115Z,12.60
2018-07-31T05:23:40.663Z,9.83
2018-07-31T05:26:09.143Z,12.83
2018-07-31T05:28:37.607Z,8.47
2018-07-31T05:31:06.204Z,8.77
2018-07-31T05:33:34.640Z,10.83
2018-07-31T05:36:03.236Z,8.53
2018-07-31T05:38:31.665Z,8.90
2018-07-31T05:41:00.180Z,8.80
2018-07-31T05:43:28.687Z,9.03
2018-07-31T05:45:57.141Z,8.70
2018-07-31T05:48:25.745Z,7.87
2018-07-31T05:50:54.226Z,8.30
2018-07-31T05:53:23.852Z,8.50
2018-07-31T05:55:52.434Z,8.93
2018-07-31T05:58:20.912Z,8.73
2018-07-31T06:00:49.539Z,8.73
2018-07-31T06:03:18.172Z,7.97
2018-07-31T06:05:46.637Z,8.40
2018-07-31T06:08:15.159Z,7.43
2018-07-31T06:10:43.728Z,6.80
2018-07-31T06:13:12.163Z,6.60
2018-07-31T06:15:40.688Z,6.70
2018-07-31T06:18:09.192Z,6.40
2018-07-31T06:20:37.767Z,7.53
2018-07-31T06:23:06.240Z,7.37
2018-07-31T06:25:34.873Z,7.37
2018-07-31T06:28:03.451Z,8.80
2018-07-31T06:30:32.009Z,10.17
2018-07-31T06:33:00.522Z,9.23
2018-07-31T06:35:29.050Z,10.33
2018-07-31T06:37:57.642Z,10.93
2018-07-31T06:40:26.159Z,9.10
2018-07-31T06:42:54.802Z,10.30
2018-07-31T06:45:23.298Z,9.63
2018-07-31T06:47:51.768Z,9.77
2018-07-31T06:50:20.367Z,9.50
2018-07-31T06:52:48.823Z,9.23
2018-07-31T06:55:17.530Z,10.83
2018-07-31T06:57:46.002Z,11.17
2018-07-31T07:00:14.469Z,10.30
2018-07-31T07:02:43.099Z,9.90
2018-07-31T07:05:11.665Z,10.50
2018-07-31T07:07:40.096Z,11.53
2018-07-31T07:10:08.753Z,10.20
2018-07-31T07:12:37.237Z,10.40
2018-07-31T07:15:05.962Z,9.13
2018-07-31T07:17:34.592Z,9.70
2018-07-31T07:20:03.082Z,9.93
2018-07-31T07:22:31.697Z,9.60
2018-07-31T07:25:00.227Z,9.67
2018-07-31T07:27:28.705Z,9.37
2018-07-31T07:29:57.358Z,10.53
2018-07-31T07:32:25.880Z,9.57
2018-07-31T07:34:54.414Z,9.93
2018-07-31T07:37:22.968Z,9.43
2018-07-31T07:39:51.567Z,10.10
2018-07-31T07:42:20.215Z,9.73
2018-07-31T07:44:48.703Z,9.10
2018-07-31T07:47:17.298Z,9.07
2018-07-31T07:49:45.870Z,9.63
2018-07-31T07:52:14.358Z,8.73
2018-07-31T07:54:43.160Z,8.40
2018-07-31T07:57:11.730Z,7.73
2018-07-31T07:59:40.281Z,8.27
2018-07-31T08:02:08.783Z,8.27
2018-07-31T08:04:37.238Z,8.43
2018-07-31T08:07:06.083Z,6.53
2018-07-31T08:09:34.813Z,6.47
2018-07-31T08:12:03.332Z,7.30
2018-07-31T08:14:32.006Z,5.70
2018-07-31T08:17:00.496Z,6.40
2018-07-31T08:19:28.966Z,7.00
2018-07-31T08:21:57.457Z,4.57
2018-07-31T08:24:25.927Z,5.00
2018-07-31T08:26:54.436Z,5.10
2018-07-31T08:29:23.038Z,4.67
2018-07-31T08:32:06.337Z,5.17
2018-07-31T08:34:34.982Z,4.33
2018-07-31T08:37:03.358Z,3.33
2018-07-31T08:39:31.994Z,4.27
2018-07-31T08:42:00.558Z,3.47
2018-07-31T08:44:29.035Z,3.30
2018-07-31T08:46:57.623Z,3.83
2018-07-31T08:49:26.109Z,3.53
2018-07-31T08:51:54.928Z,2.93
2018-07-31T08:54:23.385Z,2.63
2018-07-31T08:56:52.001Z,2.57
2018-07-31T08:59:20.440Z,2.53
2018-07-31T09:01:48.940Z,2.33
2018-07-31T09:04:17.415Z,2.37
2018-07-31T09:06:45.957Z,1.60
2018-07-31T09:09:14.505Z,2.07
2018-07-31T09:11:43.056Z,1.83
2018-07-31T09:14:11.528Z,1.80
2018-07-31T09:16:40.000Z,1.50
2018-07-31T09:19:08.644Z,1.57
2018-07-31T09:21:37.392Z,1.33
2018-07-31T09:24:05.939Z,1.47
2018-07-31T09:26:34.441Z,1.57
2018-07-31T09:29:02.930Z,1.90
2018-07-31T09:31:31.371Z,2.17
2018-07-31T09:33:59.908Z,1.57
2018-07-31T09:36:28.387Z,1.60
2018-07-31T09:38:57.054Z,1.20
2018-07-31T09:41:25.536Z,1.53
2018-07-31T09:43:54.034Z,1.50
2018-07-31T09:46:22.601Z,1.40
2018-07-31T09:48:51.077Z,1.37
2018-07-31T09:51:19.608Z,1.17
2018-07-31T09:53:48.161Z,1.70
2018-07-31T09:56:16.732Z,1.73
2018-07-31T09:58:45.240Z,1.53
2018-07-31T10:01:18.572Z,1.77
2018-07-31T10:03:47.316Z,1.40
2018-07-31T10:06:15.908Z,1.80
2018-07-31T10:08:44.366Z,1.80
2018-07-31T10:11:17.288Z,1.23
2018-07-31T10:13:46.918Z,1.40
2018-07-31T10:16:15.450Z,1.83
2018-07-31T10:18:43.940Z,1.77
2018-07-31T10:21:12.523Z,1.43
2018-07-31T10:23:41.062Z,1.93
2018-07-31T10:26:09.552Z,1.83
2018-07-31T10:28:38.114Z,1.60
2018-07-31T10:31:06.859Z,1.60
2018-07-31T10:33:35.373Z,1.70
2018-07-31T10:36:03.834Z,1.10
2018-07-31T10:38:32.964Z,1.90
2018-07-31T10:41:01.512Z,1.80
2018-07-31T10:43:30.081Z,1.20
2018-07-31T10:45:58.681Z,1.33
2018-07-31T10:48:27.250Z,1.30
2018-07-31T10:50:55.925Z,2.27
2018-07-31T10:53:24.598Z,1.47
2018-07-31T10:55:53.906Z,1.87
2018-07-31T10:58:22.424Z,1.43
2018-07-31T11:00:51.070Z,1.13
2018-07-31T11:03:19.575Z,1.50
2018-07-31T11:05:48.052Z,1.30
2018-07-31T11:08:16.633Z,1.10
2018-07-31T11:10:45.117Z,1.20
2018-07-31T11:13:13.715Z,1.17
2018-07-31T11:15:42.266Z,1.13
2018-07-31T11:18:10.787Z,1.33
2018-07-31T11:20:39.356Z,1.10
2018-07-31T11:23:07.936Z,1.70
2018-07-31T11:25:36.505Z,1.10
2018-07-31T11:28:04.928Z,1.30
2018-07-31T11:30:33.469Z,1.20
2018-07-31T11:33:01.996Z,1.13
2018-07-31T11:35:30.532Z,0.90
2018-07-31T11:37:59.012Z,1.40
2018-07-31T11:40:27.464Z,1.07
2018-07-31T11:42:55.968Z,1.00
2018-07-31T11:45:24.447Z,1.50
2018-07-31T11:47:53.131Z,1.23
2018-07-31T11:50:21.617Z,1.33
2018-07-31T11:52:50.109Z,1.30
2018-07-31T11:55:18.686Z,1.30
2018-07-31T11:57:47.422Z,1.10
2018-07-31T12:00:16.001Z,1.27
2018-07-31T12:02:44.538Z,1.23
2018-07-31T12:05:12.982Z,0.90
2018-07-31T12:07:41.505Z,1.23
2018-07-31T12:10:27.809Z,1.03
2018-07-31T12:12:56.391Z,1.10
2018-07-31T12:15:24.859Z,0.97
2018-07-31T12:17:53.381Z,1.40
2018-07-31T12:20:22.103Z,1.47
2018-07-31T12:22:50.608Z,0.90
2018-07-31T12:25:19.218Z,1.27
2018-07-31T12:27:47.730Z,1.47
2018-07-31T12:30:16.277Z,1.10
2018-07-31T12:32:44.748Z,1.10
2018-07-31T12:35:13.235Z,1.10
2018-07-31T12:37:41.707Z,1.47
2018-07-31T12:40:10.208Z,1.57
2018-07-31T12:42:38.768Z,1.00
2018-07-31T12:45:07.300Z,1.07
2018-07-31T12:47:35.849Z,1.10
2018-07-31T12:50:08.291Z,0.87
2018-07-31T12:52:37.406Z,0.93
2018-07-31T12:55:05.915Z,0.90
2018-07-31T12:57:34.481Z,1.10
2018-07-31T13:00:03.338Z,1.00
2018-07-31T13:02:31.877Z,1.07
2018-07-31T13:05:00.472Z,0.73
2018-07-31T13:07:28.952Z,0.70
2018-07-31T13:09:57.541Z,0.90
2018-07-31T13:12:26.078Z,0.90
2018-07-31T13:14:54.669Z,1.03
2018-07-31T13:17:23.237Z,1.30
2018-07-31T13:19:51.709Z,0.90
2018-07-31T13:22:20.233Z,1.13
2018-07-31T13:24:48.995Z,0.90
2018-07-31T13:27:17.484Z,0.90
2018-07-31T13:29:46.348Z,0.60
2018-07-31T13:32:14.845Z,1.60
2018-07-31T13:34:43.342Z,0.80
2018-07-31T13:37:11.946Z,0.90
2018-07-31T13:39:40.627Z,1.00
2018-07-31T13:42:09.111Z,1.00
2018-07-31T13:44:37.690Z,0.93
2018-07-31T13:47:06.232Z,0.80
2018-07-31T13:49:34.743Z,0.77
2018-07-31T13:52:03.291Z,1.00
2018-07-31T13:54:31.776Z,1.17
2018-07-31T13:57:00.340Z,1.20
2018-07-31T13:59:29.155Z,0.93
2018-07-31T14:01:57.743Z,1.20
2018-07-31T14:04:34.728Z,0.70
2018-07-31T14:07:04.833Z,1.10
2018-07-31T14:09:33.420Z,1.07
2018-07-31T14:12:02.001Z,1.10
2018-07-31T14:14:30.471Z,2.00
2018-07-31T14:16:58.967Z,1.07
2018-07-31T14:19:27.437Z,1.50
2018-07-31T14:21:55.920Z,1.10
2018-07-31T14:24:24.453Z,1.00
2018-07-31T14:27:13.972Z,1.13
2018-07-31T14:29:42.917Z,1.23
2018-07-31T14:32:11.460Z,0.80
2018-07-31T14:34:40.073Z,1.27
2018-07-31T14:37:08.969Z,1.17
2018-07-31T14:39:38.091Z,1.10
2018-07-31T14:42:06.625Z,1.20
2018-07-31T14:44:35.087Z,0.90
2018-07-31T14:47:04.585Z,1.30
2018-07-31T14:49:32.993Z,1.17
2018-07-31T14:52:01.545Z,1.40
2018-07-31T14:54:30.042Z,1.10
2018-07-31T14:56:58.520Z,1.20
2018-07-31T14:59:26.980Z,1.20
2018-07-31T15:01:55.499Z,1.33
2018-07-31T15:04:24.052Z,1.23
2018-07-31T15:06:52.548Z,1.07
2018-07-31T15:09:20.997Z,1.50
2018-07-31T15:11:49.515Z,1.60
2018-07-31T15:14:18.079Z,1.53
2018-07-31T15:16:46.618Z,1.90
2018-07-31T15:19:15.254Z,1.27
2018-07-31T15:21:43.736Z,1.60
2018-07-31T15:24:12.208Z,1.40
2018-07-31T15:26:40.796Z,1.30
2018-07-31T15:29:09.317Z,1.50
2018-07-31T15:31:37.937Z,1.70
2018-07-31T15:34:06.659Z,1.53
2018-07-31T15:36:35.270Z,1.37
2018-07-31T15:39:05.053Z,1.40
2018-07-31T15:41:33.536Z,1.20
2018-07-31T15:44:02.114Z,1.20
2018-07-31T15:46:39.295Z,1.53
2018-07-31T15:49:08.121Z,2.10
2018-07-31T15:51:36.672Z,1.20
2018-07-31T15:54:05.232Z,2.00
2018-07-31T15:56:33.636Z,1.57
2018-07-31T15:59:02.222Z,1.50
2018-07-31T16:01:30.793Z,1.70
2018-07-31T16:03:59.277Z,1.90
2018-07-31T16:06:27.792Z,1.67
2018-07-31T16:08:56.363Z,1.70
2018-07-31T16:11:24.916Z,2.00
2018-07-31T16:13:53.348Z,1.80
2018-07-31T16:16:21.844Z,1.80
2018-07-31T16:18:50.389Z,2.07
2018-07-31T16:21:18.954Z,2.10
2018-07-31T16:23:47.425Z,2.07
2018-07-31T16:26:15.957Z,1.73
2018-07-31T16:28:44.540Z,1.70
2018-07-31T16:31:13.081Z,1.93
2018-07-31T16:33:41.613Z,1.83
2018-07-31T16:36:10.148Z,2.10
2018-07-31T16:38:38.620Z,2.17
2018-07-31T16:41:07.284Z,1.73
2018-07-31T16:43:35.791Z,1.40
2018-07-31T16:46:04.273Z,2.53
2018-07-31T16:48:32.765Z,1.77
2018-07-31T16:51:01.249Z,1.47
2018-07-31T16:53:29.708Z,1.87
2018-07-31T16:55:58.192Z,1.63
2018-07-31T16:58:26.664Z,1.90
2018-07-31T17:00:55.159Z,2.20
2018-07-31T17:03:23.766Z,1.50
2018-07-31T17:05:52.297Z,2.20
2018-07-31T17:08:20.841Z,2.53
2018-07-31T17:10:49.389Z,2.33
2018-07-31T17:13:17.879Z,2.50
2018-07-31T17:15:46.460Z,2.23
2018-07-31T17:18:15.143Z,2.00
2018-07-31T17:20:43.628Z,2.13
2018-07-31T17:23:12.195Z,2.30
2018-07-31T17:25:41.403Z,2.33
2018-07-31T17:28:09.946Z,3.13
2018-07-31T17:30:38.502Z,2.93
2018-07-31T17:33:07.134Z,2.23
2018-07-31T17:35:35.652Z,1.90
2018-07-31T17:38:04.140Z,2.27
2018-07-31T17:40:32.704Z,2.10
2018-07-31T17:43:01.174Z,1.83
2018-07-31T17:45:29.683Z,2.07
2018-07-31T17:47:58.237Z,2.20
2018-07-31T17:50:26.762Z,2.37
2018-07-31T17:52:55.322Z,2.00
2018-07-31T17:55:23.891Z,2.00
2018-07-31T17:57:52.415Z,2.90
2018-07-31T18:00:20.953Z,1.97
2018-07-31T18:02:49.456Z,2.63
2018-07-31T18:05:18.158Z,2.10
2018-07-31T18:07:46.710Z,1.90
2018-07-31T18:10:15.229Z,1.80
2018-07-31T18:12:43.789Z,2.17
2018-07-31T18:15:12.353Z,2.40
2018-07-31T18:17:40.884Z,2.23
2018-07-31T18:20:09.448Z,2.23
2018-07-31T18:22:37.997Z,2.20
2018-07-31T18:25:06.592Z,2.30
2018-07-31T18:27:35.061Z,2.77
2018-07-31T18:30:03.885Z,2.20
2018-07-31T18:32:32.542Z,2.10
2018-07-31T18:35:01.077Z,2.37
2018-07-31T18:37:29.741Z,2.40
2018-07-31T18:39:58.410Z,2.17
2018-07-31T18:42:26.858Z,2.37
2018-07-31T18:44:55.371Z,2.07
2018-07-31T18:47:23.949Z,1.83
2018-07-31T18:49:52.729Z,2.17
2018-07-31T18:52:21.275Z,2.20
2018-07-31T18:54:49.842Z,2.47
2018-07-31T18:57:18.376Z,1.87
2018-07-31T18:59:46.874Z,2.10
2018-07-31T19:02:15.369Z,2.10
2018-07-31T19:04:43.827Z,1.60
2018-07-31T19:07:12.312Z,1.80
2018-07-31T19:09:40.813Z,1.77
2018-07-31T19:12:09.386Z,1.70
2018-07-31T19:14:37.932Z,1.70
2018-07-31T19:17:06.761Z,2.50
2018-07-31T19:19:35.250Z,2.00
2018-07-31T19:22:03.855Z,1.90
2018-07-31T19:24:32.431Z,2.37
2018-07-31T19:27:01.033Z,2.37
2018-07-31T19:29:29.485Z,1.67
2018-07-31T19:31:58.075Z,1.83
2018-07-31T19:34:27.061Z,2.43
2018-07-31T19:36:55.734Z,1.83
2018-07-31T19:39:24.336Z,2.37
2018-07-31T19:41:52.993Z,2.53
2018-07-31T19:44:21.412Z,2.27
2018-07-31T19:46:50.077Z,2.13
2018-07-31T19:49:18.712Z,2.27
2018-07-31T19:51:47.385Z,2.33
2018-07-31T19:54:16.084Z,2.27
2018-07-31T19:56:44.605Z,2.43
2018-07-31T19:59:13.084Z,2.27
2018-07-31T20:01:41.674Z,2.20
2018-07-31T20:04:10.295Z,2.07
2018-07-31T20:06:38.883Z,2.13
2018-07-31T20:09:08.662Z,2.00
2018-07-31T20:11:37.253Z,1.97
2018-07-31T20:14:05.951Z,2.00
2018-07-31T20:16:34.591Z,2.30
2018-07-31T20:19:03.178Z,2.27
2018-07-31T20:21:31.933Z,1.77
2018-07-31T20:24:00.510Z,2.70
2018-07-31T20:26:29.080Z,2.13
2018-07-31T20:28:57.658Z,1.87
2018-07-31T20:31:26.233Z,2.20
2018-07-31T20:33:54.719Z,2.20
2018-07-31T20:36:23.482Z,1.50
2018-07-31T20:38:52.461Z,2.10
2018-07-31T20:41:21.055Z,1.70
2018-07-31T20:43:49.682Z,2.40
2018-07-31T20:46:18.788Z,1.80
2018-07-31T20:48:47.317Z,2.13
2018-07-31T20:51:15.898Z,1.50
2018-07-31T20:53:44.533Z,1.90
2018-07-31T20:56:13.183Z,1.83
2018-07-31T20:58:41.789Z,2.63
2018-07-31T21:01:10.387Z,2.50
2018-07-31T21:03:38.993Z,1.70
2018-07-31T21:09:37.039Z,2.40
2018-07-31T21:12:05.736Z,2.93
2018-07-31T21:14:34.340Z,1.97
2018-07-31T21:17:02.953Z,2.00
2018-07-31T21:19:31.483Z,2.40
2018-07-31T21:22:00.659Z,2.13
2018-07-31T21:24:29.475Z,1.67
2018-07-31T21:26:58.065Z,2.37
2018-07-31T21:29:26.662Z,2.53
2018-07-31T21:31:55.446Z,2.27
2018-07-31T21:34:24.280Z,2.37
2018-07-31T21:36:52.971Z,2.97
2018-07-31T21:39:21.546Z,1.47
2018-07-31T21:41:50.106Z,2.77
2018-07-31T21:44:18.581Z,1.80
2018-07-31T21:46:47.209Z,2.10
2018-07-31T21:49:15.724Z,1.97
2018-07-31T21:51:44.198Z,2.50
2018-07-31T21:54:12.765Z,2.00
2018-07-31T21:56:41.388Z,2.70
2018-07-31T21:59:10.062Z,2.40
2018-07-31T22:01:38.663Z,1.93
2018-07-31T22:04:07.410Z,2.43
2018-07-31T22:06:36.014Z,2.40
2018-07-31T22:09:06.702Z,2.40
2018-07-31T22:11:35.229Z,2.90
2018-07-31T22:14:04.722Z,3.03
2018-07-31T22:16:33.370Z,2.23
2018-07-31T22:19:02.061Z,2.27
2018-07-31T22:21:30.608Z,2.47
2018-07-31T22:23:59.166Z,2.67
2018-07-31T22:26:27.714Z,2.10
2018-07-31T22:28:56.373Z,2.53
2018-07-31T22:31:24.924Z,2.30
2018-07-31T22:33:53.568Z,1.90
2018-07-31T22:36:22.154Z,2.20
2018-07-31T22:38:50.686Z,2.30
2018-07-31T22:41:19.263Z,2.00
2018-07-31T22:43:47.829Z,2.50
2018-07-31T22:46:16.425Z,2.50
2018-07-31T22:48:49.826Z,1.97
2018-07-31T22:51:18.335Z,2.40
2018-07-31T22:53:46.893Z,2.10
2018-07-31T22:56:15.487Z,2.60
2018-07-31T22:58:44.071Z,2.23
2018-07-31T23:01:12.678Z,2.17
2018-07-31T23:03:41.135Z,1.93
2018-07-31T23:06:09.654Z,1.60
2018-07-31T23:08:38.084Z,3.17
2018-07-31T23:11:06.752Z,2.10
2018-07-31T23:13:35.257Z,1.80
2018-07-31T23:16:03.765Z,2.10
2018-07-31T23:18:32.258Z,2.37
2018-07-31T23:21:00.689Z,2.40
2018-07-31T23:23:29.173Z,2.13
2018-07-31T23:25:57.658Z,1.97
2018-07-31T23:28:26.190Z,2.13
2018-07-31T23:30:54.731Z,2.33
2018-07-31T23:33:23.329Z,2.33
2018-07-31T23:35:51.805Z,2.20
2018-07-31T23:38:20.407Z,2.43
2018-07-31T23:40:48.922Z,2.00
2018-07-31T23:43:17.370Z,2.40
2018-07-31T23:45:45.938Z,1.90
2018-07-31T23:48:14.406Z,1.77
2018-07-31T23:50:43.060Z,2.10
2018-07-31T23:53:11.494Z,2.00
2018-07-31T23:55:40.098Z,2.00
2018-07-31T23:58:08.657Z,2.20
